Terminal Aerodrome Forecast
Issued by NWS Boise, ID

Home | Current Version | Previous Version | Text Only | Print | Product List | Glossary On
Versions: 1 2 3 4 5 6 7 8 9 10 11 12 13 14
000
FTUS45 KBOI 301258 AAA
TAFBOI
TAF AMD
KBOI 301258Z 3013/3112 VRB06KT P6SM SKC
      TEMPO 3013/3016 5SM HZ
     FM301800 31010KT P6SM SCT200
     FM310400 VRB05KT P6SM SKC=

USA.gov is the U.S. government's official web portal to all federal, state and local government web resources and services.